sensor_id;sensor_type;location;lat;lon;timestamp;pressure;altitude;pressure_sealevel;temperature;humidity
62152;BME280;48139;47.474;19.034;2023-06-19T03:52:33;100351.63;;;17.70;100.00
62152;BME280;48139;47.474;19.034;2023-06-19T03:55:36;100351.63;;;17.70;100.00
62152;BME280;48139;47.474;19.034;2023-06-19T03:58:39;100349.09;;;17.34;100.00
62152;BME280;48139;47.474;19.034;2023-06-19T04:01:42;100350.34;;;17.41;100.00
62152;BME280;48139;47.474;19.034;2023-06-19T04:04:45;100356.19;;;17.33;100.00
62152;BME280;48139;47.474;19.034;2023-06-19T04:07:49;100347.88;;;17.27;100.00
62152;BME280;48139;47.474;19.034;2023-06-19T04:10:52;100346.09;;;17.39;100.00
62152;BME280;48139;47.474;19.034;2023-06-19T04:13:55;100347.31;;;17.46;100.00
62152;BME280;48139;47.474;19.034;2023-06-19T04:16:57;100350.09;;;17.44;100.00
62152;BME280;48139;47.474;19.034;2023-06-19T04:20:02;100353.59;;;17.56;100.00
62152;BME280;48139;47.474;19.034;2023-06-19T04:23:13;100350.94;;;17.56;100.00
62152;BME280;48139;47.474;19.034;2023-06-19T04:26:16;100350.09;;;17.55;100.00
62152;BME280;48139;47.474;19.034;2023-06-19T04:29:20;100347.75;;;17.63;100.00
62152;BME280;48139;47.474;19.034;2023-06-19T04:32:22;100354.28;;;17.70;100.00
62152;BME280;48139;47.474;19.034;2023-06-19T04:35:25;100352.75;;;17.79;100.00
62152;BME280;48139;47.474;19.034;2023-06-19T04:38:28;100355.87;;;17.84;100.00
62152;BME280;48139;47.474;19.034;2023-06-19T04:41:31;100349.47;;;17.87;100.00
62152;BME280;48139;47.474;19.034;2023-06-19T04:44:36;100350.84;;;17.92;100.00
62152;BME280;48139;47.474;19.034;2023-06-19T04:47:38;100351.22;;;17.99;100.00
62152;BME280;48139;47.474;19.034;2023-06-19T04:50:55;100355.41;;;18.12;100.00
62152;BME280;48139;47.474;19.034;2023-06-19T04:53:59;100360.09;;;18.31;100.00
62152;BME280;48139;47.474;19.034;2023-06-19T04:57:02;100354.56;;;18.45;100.00
62152;BME280;48139;47.474;19.034;2023-06-19T05:00:05;100353.84;;;18.54;100.00
62152;BME280;48139;47.474;19.034;2023-06-19T05:03:17;100363.47;;;18.78;100.00
62152;BME280;48139;47.474;19.034;2023-06-19T05:06:24;100371.66;;;18.86;100.00
62152;BME280;48139;47.474;19.034;2023-06-19T05:09:26;100377.44;;;18.91;100.00
62152;BME280;48139;47.474;19.034;2023-06-19T05:12:29;100373.66;;;19.05;100.00
62152;BME280;48139;47.474;19.034;2023-06-19T05:15:31;100372.41;;;19.09;100.00
62152;BME280;48139;47.474;19.034;2023-06-19T05:18:34;100381.84;;;19.02;100.00
62152;BME280;48139;47.474;19.034;2023-06-19T05:21:37;100388.75;;;18.93;100.00
62152;BME280;48139;47.474;19.034;2023-06-19T05:24:40;100390.09;;;18.99;100.00
62152;BME280;48139;47.474;19.034;2023-06-19T05:27:43;100392.66;;;19.21;100.00
62152;BME280;48139;47.474;19.034;2023-06-19T05:30:45;100384.47;;;19.45;100.00
62152;BME280;48139;47.474;19.034;2023-06-19T05:33:49;100387.97;;;19.45;100.00
62152;BME280;48139;47.474;19.034;2023-06-19T05:36:52;100389.31;;;19.40;100.00
62152;BME280;48139;47.474;19.034;2023-06-19T05:39:54;100390.41;;;19.48;100.00
62152;BME280;48139;47.474;19.034;2023-06-19T05:42:57;100390.41;;;19.69;100.00
62152;BME280;48139;47.474;19.034;2023-06-19T05:46:00;100394.97;;;19.78;99.44
62152;BME280;48139;47.474;19.034;2023-06-19T05:49:04;100397.22;;;20.03;98.10
62152;BME280;48139;47.474;19.034;2023-06-19T05:52:07;100386.28;;;20.06;95.83
62152;BME280;48139;47.474;19.034;2023-06-19T05:55:10;100396.16;;;20.16;95.96
62152;BME280;48139;47.474;19.034;2023-06-19T05:58:15;100409.91;;;20.41;93.70
62152;BME280;48139;47.474;19.034;2023-06-19T06:01:22;100402.59;;;20.74;92.76
62152;BME280;48139;47.474;19.034;2023-06-19T06:04:27;100405.22;;;20.64;90.31
62152;BME280;48139;47.474;19.034;2023-06-19T06:07:30;100409.97;;;20.61;94.63
62152;BME280;48139;47.474;19.034;2023-06-19T06:10:34;100408.47;;;20.77;92.61
62152;BME280;48139;47.474;19.034;2023-06-19T06:13:37;100405.12;;;20.94;89.87
62152;BME280;48139;47.474;19.034;2023-06-19T06:16:40;100409.87;;;21.41;87.08
62152;BME280;48139;47.474;19.034;2023-06-19T06:19:42;100413.19;;;21.81;85.91
62152;BME280;48139;47.474;19.034;2023-06-19T06:22:45;100412.47;;;22.08;83.08
62152;BME280;48139;47.474;19.034;2023-06-19T06:25:48;100404.59;;;22.16;82.63
62152;BME280;48139;47.474;19.034;2023-06-19T06:28:50;100413.09;;;22.66;80.65
62152;BME280;48139;47.474;19.034;2023-06-19T06:32:02;100410.44;;;23.11;76.85
62152;BME280;48139;47.474;19.034;2023-06-19T06:35:06;100411.88;;;22.88;75.01
62152;BME280;48139;47.474;19.034;2023-06-19T06:38:09;100418.06;;;22.88;76.51
62152;BME280;48139;47.474;19.034;2023-06-19T06:41:12;100429.84;;;23.13;74.73
62152;BME280;48139;47.474;19.034;2023-06-19T06:44:14;100417.06;;;23.17;75.00
62152;BME280;48139;47.474;19.034;2023-06-19T06:47:17;100416.72;;;23.20;73.73
62152;BME280;48139;47.474;19.034;2023-06-19T06:50:19;100425.47;;;22.95;75.25
62152;BME280;48139;47.474;19.034;2023-06-19T06:53:23;100423.06;;;23.01;75.38
62152;BME280;48139;47.474;19.034;2023-06-19T06:56:25;100415.00;;;23.46;73.40
62152;BME280;48139;47.474;19.034;2023-06-19T06:59:28;100412.03;;;23.67;71.29
62152;BME280;48139;47.474;19.034;2023-06-19T07:02:31;100416.69;;;23.65;74.17
62152;BME280;48139;47.474;19.034;2023-06-19T07:05:34;100423.25;;;23.70;73.58
62152;BME280;48139;47.474;19.034;2023-06-19T07:08:36;100419.66;;;24.05;70.90
62152;BME280;48139;47.474;19.034;2023-06-19T07:11:39;100422.06;;;24.42;66.32
62152;BME280;48139;47.474;19.034;2023-06-19T07:14:42;100419.44;;;24.50;68.41
62152;BME280;48139;47.474;19.034;2023-06-19T07:17:45;100418.25;;;24.45;67.35
62152;BME280;48139;47.474;19.034;2023-06-19T07:20:48;100411.41;;;24.50;62.62
62152;BME280;48139;47.474;19.034;2023-06-19T07:23:50;100417.63;;;24.51;68.80
62152;BME280;48139;47.474;19.034;2023-06-19T07:26:53;100412.69;;;24.38;65.27
62152;BME280;48139;47.474;19.034;2023-06-19T07:29:56;100406.41;;;24.56;66.77
62152;BME280;48139;47.474;19.034;2023-06-19T07:32:58;100409.47;;;24.61;65.36
62152;BME280;48139;47.474;19.034;2023-06-19T07:36:02;100410.66;;;24.74;64.95
62152;BME280;48139;47.474;19.034;2023-06-19T07:39:05;100410.13;;;24.97;57.20
62152;BME280;48139;47.474;19.034;2023-06-19T07:42:08;100408.31;;;25.13;58.12
62152;BME280;48139;47.474;19.034;2023-06-19T07:45:11;100416.00;;;25.08;59.63
62152;BME280;48139;47.474;19.034;2023-06-19T07:48:13;100415.19;;;25.24;60.13
62152;BME280;48139;47.474;19.034;2023-06-19T07:51:16;100406.66;;;25.28;64.11
62152;BME280;48139;47.474;19.034;2023-06-19T07:54:18;100412.00;;;25.20;64.54
62152;BME280;48139;47.474;19.034;2023-06-19T07:57:22;100414.38;;;25.56;60.77
62152;BME280;48139;47.474;19.034;2023-06-19T08:00:25;100402.19;;;25.69;57.61
62152;BME280;48139;47.474;19.034;2023-06-19T08:03:28;100407.53;;;25.61;58.54
62152;BME280;48139;47.474;19.034;2023-06-19T08:06:32;100406.53;;;25.87;58.64
62152;BME280;48139;47.474;19.034;2023-06-19T08:09:35;100401.31;;;25.93;57.59
62152;BME280;48139;47.474;19.034;2023-06-19T08:12:37;100396.31;;;25.90;60.72
62152;BME280;48139;47.474;19.034;2023-06-19T08:15:40;100396.47;;;25.89;60.80
62152;BME280;48139;47.474;19.034;2023-06-19T08:18:44;100412.53;;;26.05;58.45
62152;BME280;48139;47.474;19.034;2023-06-19T08:21:46;100410.19;;;26.26;52.56
62152;BME280;48139;47.474;19.034;2023-06-19T08:24:51;100410.66;;;26.38;55.38
62152;BME280;48139;47.474;19.034;2023-06-19T08:27:54;100403.75;;;26.43;54.92
62152;BME280;48139;47.474;19.034;2023-06-19T08:30:56;100408.09;;;26.53;54.20
62152;BME280;48139;47.474;19.034;2023-06-19T08:33:59;100397.84;;;26.87;58.34
62152;BME280;48139;47.474;19.034;2023-06-19T08:37:02;100395.63;;;26.99;55.91
62152;BME280;48139;47.474;19.034;2023-06-19T08:40:06;100407.19;;;27.07;54.14
62152;BME280;48139;47.474;19.034;2023-06-19T08:43:11;100403.81;;;27.05;51.86
62152;BME280;48139;47.474;19.034;2023-06-19T08:46:16;100402.31;;;27.11;52.61
62152;BME280;48139;47.474;19.034;2023-06-19T08:49:23;100404.31;;;27.09;52.06
62152;BME280;48139;47.474;19.034;2023-06-19T08:52:27;100405.63;;;27.13;51.02
62152;BME280;48139;47.474;19.034;2023-06-19T08:55:34;100402.31;;;27.34;52.95
62152;BME280;48139;47.474;19.034;2023-06-19T08:58:38;100402.66;;;27.30;53.28
62152;BME280;48139;47.474;19.034;2023-06-19T09:01:45;100393.13;;;27.43;50.59
62152;BME280;48139;47.474;19.034;2023-06-19T09:04:55;100388.63;;;27.66;50.51
62152;BME280;48139;47.474;19.034;2023-06-19T09:07:59;100392.44;;;27.72;47.78
62152;BME280;48139;47.474;19.034;2023-06-19T09:11:06;100387.00;;;27.57;53.81
62152;BME280;48139;47.474;19.034;2023-06-19T09:14:12;100390.41;;;27.51;47.22
62152;BME280;48139;47.474;19.034;2023-06-19T09:17:19;100391.38;;;27.95;48.53
62152;BME280;48139;47.474;19.034;2023-06-19T09:20:27;100392.38;;;28.17;46.48
62152;BME280;48139;47.474;19.034;2023-06-19T09:23:30;100387.69;;;28.70;43.77
62152;BME280;48139;47.474;19.034;2023-06-19T09:26:35;100384.72;;;28.65;45.64
62152;BME280;48139;47.474;19.034;2023-06-19T09:29:43;100388.81;;;28.61;49.35
62152;BME280;48139;47.474;19.034;2023-06-19T09:32:46;100386.56;;;28.49;45.97
62152;BME280;48139;47.474;19.034;2023-06-19T09:35:50;100388.94;;;28.23;47.84
62152;BME280;48139;47.474;19.034;2023-06-19T09:38:54;100378.78;;;28.25;46.06
62152;BME280;48139;47.474;19.034;2023-06-19T09:41:59;100383.03;;;28.49;46.80
62152;BME280;48139;47.474;19.034;2023-06-19T09:45:07;100382.97;;;28.28;45.08
62152;BME280;48139;47.474;19.034;2023-06-19T09:48:14;100371.53;;;28.40;46.34
62152;BME280;48139;47.474;19.034;2023-06-19T09:51:33;100374.59;;;28.52;50.72
62152;BME280;48139;47.474;19.034;2023-06-19T09:54:39;100374.72;;;28.29;49.77
62152;BME280;48139;47.474;19.034;2023-06-19T09:57:44;100370.41;;;28.64;46.09
62152;BME280;48139;47.474;19.034;2023-06-19T10:00:52;100368.31;;;28.96;44.97
62152;BME280;48139;47.474;19.034;2023-06-19T10:04:08;100364.41;;;28.98;45.40
62152;BME280;48139;47.474;19.034;2023-06-19T10:07:21;100351.34;;;29.02;43.39
62152;BME280;48139;47.474;19.034;2023-06-19T10:10:27;100351.31;;;29.16;41.94
62152;BME280;48139;47.474;19.034;2023-06-19T10:13:36;100350.00;;;28.91;45.65
62152;BME280;48139;47.474;19.034;2023-06-19T10:16:41;100349.19;;;28.76;44.43
62152;BME280;48139;47.474;19.034;2023-06-19T10:19:50;100347.44;;;29.25;44.30
62152;BME280;48139;47.474;19.034;2023-06-19T10:23:02;100348.34;;;29.33;44.93
62152;BME280;48139;47.474;19.034;2023-06-19T10:26:06;100347.16;;;29.35;44.34
62152;BME280;48139;47.474;19.034;2023-06-19T10:29:16;100345.00;;;29.09;47.35
62152;BME280;48139;47.474;19.034;2023-06-19T10:32:21;100337.03;;;28.65;42.62
62152;BME280;48139;47.474;19.034;2023-06-19T10:35:24;100334.72;;;28.98;41.67
62152;BME280;48139;47.474;19.034;2023-06-19T10:38:27;100342.63;;;29.42;38.76
62152;BME280;48139;47.474;19.034;2023-06-19T10:41:30;100336.47;;;29.97;37.91
62152;BME280;48139;47.474;19.034;2023-06-19T10:44:34;100341.19;;;30.23;38.69
62152;BME280;48139;47.474;19.034;2023-06-19T10:47:40;100328.87;;;30.21;39.21
62152;BME280;48139;47.474;19.034;2023-06-19T10:50:43;100335.84;;;30.02;40.46
62152;BME280;48139;47.474;19.034;2023-06-19T10:53:47;100329.22;;;29.77;40.50
62152;BME280;48139;47.474;19.034;2023-06-19T10:56:49;100331.06;;;29.76;37.95
62152;BME280;48139;47.474;19.034;2023-06-19T10:59:53;100331.87;;;29.98;38.89
62152;BME280;48139;47.474;19.034;2023-06-19T11:02:56;100326.41;;;29.63;38.83
62152;BME280;48139;47.474;19.034;2023-06-19T11:06:00;100330.12;;;29.62;38.77
62152;BME280;48139;47.474;19.034;2023-06-19T11:09:03;100326.97;;;29.87;37.32
62152;BME280;48139;47.474;19.034;2023-06-19T11:12:09;100327.47;;;30.31;36.93
62152;BME280;48139;47.474;19.034;2023-06-19T11:15:13;100325.59;;;30.66;36.12
62152;BME280;48139;47.474;19.034;2023-06-19T11:18:17;100327.25;;;30.74;34.87
62152;BME280;48139;47.474;19.034;2023-06-19T11:21:21;100324.59;;;30.94;33.57
62152;BME280;48139;47.474;19.034;2023-06-19T11:24:33;100322.28;;;30.36;34.58
62152;BME280;48139;47.474;19.034;2023-06-19T11:27:38;100324.28;;;30.56;34.66
62152;BME280;48139;47.474;19.034;2023-06-19T11:30:42;100321.66;;;30.75;34.47
62152;BME280;48139;47.474;19.034;2023-06-19T11:33:56;100317.12;;;30.96;34.56
62152;BME280;48139;47.474;19.034;2023-06-19T11:36:59;100318.53;;;30.78;34.00
62152;BME280;48139;47.474;19.034;2023-06-19T11:40:02;100310.69;;;31.03;34.29
62152;BME280;48139;47.474;19.034;2023-06-19T11:43:25;100304.44;;;31.03;34.96
62152;BME280;48139;47.474;19.034;2023-06-19T11:46:29;100295.94;;;31.06;34.99
62152;BME280;48139;47.474;19.034;2023-06-19T11:49:36;100297.34;;;30.34;34.81
62152;BME280;48139;47.474;19.034;2023-06-19T11:52:39;100290.44;;;30.73;34.69
62152;BME280;48139;47.474;19.034;2023-06-19T11:55:42;100294.84;;;31.00;34.00
62152;BME280;48139;47.474;19.034;2023-06-19T11:58:46;100290.75;;;31.04;34.51
62152;BME280;48139;47.474;19.034;2023-06-19T12:01:48;100285.94;;;31.13;33.76
62152;BME280;48139;47.474;19.034;2023-06-19T12:04:51;100286.78;;;31.27;33.25
62152;BME280;48139;47.474;19.034;2023-06-19T12:07:54;100285.94;;;31.26;33.77
62152;BME280;48139;47.474;19.034;2023-06-19T12:10:56;100292.84;;;31.29;33.40
62152;BME280;48139;47.474;19.034;2023-06-19T12:13:59;100295.09;;;31.25;33.16
62152;BME280;48139;47.474;19.034;2023-06-19T12:17:03;100286.16;;;30.44;33.73
62152;BME280;48139;47.474;19.034;2023-06-19T12:20:06;100279.78;;;30.52;34.32
62152;BME280;48139;47.474;19.034;2023-06-19T12:23:10;100278.16;;;30.70;34.39
62152;BME280;48139;47.474;19.034;2023-06-19T12:26:13;100267.19;;;30.98;34.32
62152;BME280;48139;47.474;19.034;2023-06-19T12:29:16;100271.19;;;31.29;33.41
62152;BME280;48139;47.474;19.034;2023-06-19T12:32:18;100256.38;;;31.38;33.79
62152;BME280;48139;47.474;19.034;2023-06-19T12:35:21;100256.78;;;31.54;33.56
62152;BME280;48139;47.474;19.034;2023-06-19T12:38:25;100256.38;;;31.71;33.73
62152;BME280;48139;47.474;19.034;2023-06-19T12:41:29;100254.47;;;31.58;32.99
62152;BME280;48139;47.474;19.034;2023-06-19T12:44:31;100251.59;;;31.59;33.63
62152;BME280;48139;47.474;19.034;2023-06-19T12:47:34;100250.56;;;31.21;35.05
62152;BME280;48139;47.474;19.034;2023-06-19T12:50:36;100257.56;;;30.69;34.02
62152;BME280;48139;47.474;19.034;2023-06-19T12:53:39;100249.00;;;30.59;34.26
62152;BME280;48139;47.474;19.034;2023-06-19T12:56:41;100241.03;;;30.44;35.67
62152;BME280;48139;47.474;19.034;2023-06-19T12:59:44;100251.44;;;30.41;34.52
62152;BME280;48139;47.474;19.034;2023-06-19T13:02:46;100243.59;;;30.53;34.73
62152;BME280;48139;47.474;19.034;2023-06-19T13:05:49;100243.16;;;30.56;34.64
62152;BME280;48139;47.474;19.034;2023-06-19T13:08:52;100241.63;;;30.33;36.89
62152;BME280;48139;47.474;19.034;2023-06-19T13:11:55;100238.22;;;30.18;37.22
62152;BME280;48139;47.474;19.034;2023-06-19T13:14:57;100234.94;;;30.23;37.45
62152;BME280;48139;47.474;19.034;2023-06-19T13:18:00;100226.00;;;29.88;37.18
62152;BME280;48139;47.474;19.034;2023-06-19T13:21:02;100227.53;;;29.62;36.70
62152;BME280;48139;47.474;19.034;2023-06-19T13:24:05;100217.47;;;29.78;36.73
62152;BME280;48139;47.474;19.034;2023-06-19T13:27:08;100215.97;;;29.75;36.97
62152;BME280;48139;47.474;19.034;2023-06-19T13:30:11;100220.22;;;29.91;36.46
62152;BME280;48139;47.474;19.034;2023-06-19T13:33:13;100216.78;;;30.03;35.82
62152;BME280;48139;47.474;19.034;2023-06-19T13:36:17;100216.47;;;30.39;36.32
62152;BME280;48139;47.474;19.034;2023-06-19T13:39:21;100218.22;;;30.06;35.89
62152;BME280;48139;47.474;19.034;2023-06-19T13:42:24;100218.69;;;30.10;36.80
62152;BME280;48139;47.474;19.034;2023-06-19T13:45:26;100226.53;;;29.98;36.79
62152;BME280;48139;47.474;19.034;2023-06-19T13:48:29;100217.28;;;29.79;35.37
62152;BME280;48139;47.474;19.034;2023-06-19T13:51:31;100213.44;;;30.01;36.44
62152;BME280;48139;47.474;19.034;2023-06-19T13:54:36;100219.66;;;29.67;37.90
62152;BME280;48139;47.474;19.034;2023-06-19T13:57:38;100221.78;;;29.38;37.47
62152;BME280;48139;47.474;19.034;2023-06-19T14:00:42;100221.25;;;29.27;36.21
62152;BME280;48139;47.474;19.034;2023-06-19T14:03:45;100219.34;;;29.21;36.11
62152;BME280;48139;47.474;19.034;2023-06-19T14:06:47;100215.84;;;29.55;36.67
62152;BME280;48139;47.474;19.034;2023-06-19T14:09:50;100211.72;;;29.32;37.70
62152;BME280;48139;47.474;19.034;2023-06-19T14:12:55;100209.56;;;29.42;36.18
62152;BME280;48139;47.474;19.034;2023-06-19T14:15:58;100209.81;;;29.47;36.13
62152;BME280;48139;47.474;19.034;2023-06-19T14:19:00;100203.34;;;29.20;37.45
62152;BME280;48139;47.474;19.034;2023-06-19T14:22:03;100199.50;;;29.63;36.48
62152;BME280;48139;47.474;19.034;2023-06-19T14:25:05;100200.00;;;29.39;37.30
62152;BME280;48139;47.474;19.034;2023-06-19T14:28:08;100201.00;;;29.38;37.61
62152;BME280;48139;47.474;19.034;2023-06-19T14:31:10;100195.91;;;29.91;35.97
62152;BME280;48139;47.474;19.034;2023-06-19T14:34:13;100196.87;;;29.77;37.96
62152;BME280;48139;47.474;19.034;2023-06-19T14:37:16;100198.81;;;29.55;35.88
62152;BME280;48139;47.474;19.034;2023-06-19T14:40:19;100204.91;;;29.08;37.83
62152;BME280;48139;47.474;19.034;2023-06-19T14:43:21;100201.88;;;29.17;39.42
62152;BME280;48139;47.474;19.034;2023-06-19T14:46:24;100205.34;;;29.11;38.49
62152;BME280;48139;47.474;19.034;2023-06-19T14:49:40;100203.25;;;29.07;37.18
62152;BME280;48139;47.474;19.034;2023-06-19T14:52:43;100198.22;;;28.61;39.89
62152;BME280;48139;47.474;19.034;2023-06-19T14:55:46;100195.81;;;28.45;40.18
62152;BME280;48139;47.474;19.034;2023-06-19T14:58:49;100191.09;;;28.32;39.46
62152;BME280;48139;47.474;19.034;2023-06-19T15:01:51;100196.47;;;28.47;40.67
62152;BME280;48139;47.474;19.034;2023-06-19T15:04:54;100194.19;;;28.51;40.94
62152;BME280;48139;47.474;19.034;2023-06-19T15:08:08;100189.72;;;28.58;42.05
62152;BME280;48139;47.474;19.034;2023-06-19T15:11:12;100190.44;;;28.87;41.16
62152;BME280;48139;47.474;19.034;2023-06-19T15:14:15;100191.78;;;29.26;41.11
62152;BME280;48139;47.474;19.034;2023-06-19T15:17:19;100184.75;;;29.59;37.82
62152;BME280;48139;47.474;19.034;2023-06-19T15:20:22;100185.78;;;29.99;36.71
62152;BME280;48139;47.474;19.034;2023-06-19T15:23:25;100183.16;;;30.19;36.33
62152;BME280;48139;47.474;19.034;2023-06-19T15:26:28;100178.63;;;30.33;35.83
62152;BME280;48139;47.474;19.034;2023-06-19T15:29:31;100173.03;;;30.34;36.10
62152;BME280;48139;47.474;19.034;2023-06-19T15:32:33;100187.13;;;30.36;36.93
62152;BME280;48139;47.474;19.034;2023-06-19T15:35:36;100184.06;;;30.46;36.06
62152;BME280;48139;47.474;19.034;2023-06-19T15:38:39;100177.66;;;30.54;36.94
62152;BME280;48139;47.474;19.034;2023-06-19T15:41:43;100184.13;;;30.59;35.93
62152;BME280;48139;47.474;19.034;2023-06-19T15:44:47;100179.75;;;30.65;36.57
62152;BME280;48139;47.474;19.034;2023-06-19T15:47:50;100181.62;;;30.64;38.60
62152;BME280;48139;47.474;19.034;2023-06-19T15:50:53;100179.72;;;30.52;39.15
62152;BME280;48139;47.474;19.034;2023-06-19T15:53:55;100174.22;;;30.25;37.97
62152;BME280;48139;47.474;19.034;2023-06-19T15:56:58;100186.31;;;30.23;39.26
62152;BME280;48139;47.474;19.034;2023-06-19T16:00:00;100181.94;;;30.28;38.77
62152;BME280;48139;47.474;19.034;2023-06-19T16:03:03;100180.69;;;30.37;39.68
62152;BME280;48139;47.474;19.034;2023-06-19T16:06:07;100173.22;;;30.33;39.70
62152;BME280;48139;47.474;19.034;2023-06-19T16:09:10;100174.88;;;30.27;38.65
62152;BME280;48139;47.474;19.034;2023-06-19T16:12:13;100174.69;;;30.29;38.50
62152;BME280;48139;47.474;19.034;2023-06-19T16:15:15;100176.53;;;30.28;38.13
62152;BME280;48139;47.474;19.034;2023-06-19T16:18:20;100182.75;;;30.22;37.54
62152;BME280;48139;47.474;19.034;2023-06-19T16:21:22;100179.63;;;30.19;37.32
62152;BME280;48139;47.474;19.034;2023-06-19T16:24:25;100181.69;;;30.10;37.42
62152;BME280;48139;47.474;19.034;2023-06-19T16:27:28;100183.31;;;29.98;38.01
62152;BME280;48139;47.474;19.034;2023-06-19T16:30:30;100176.53;;;29.81;38.11
62152;BME280;48139;47.474;19.034;2023-06-19T16:33:33;100182.75;;;29.75;37.59
62152;BME280;48139;47.474;19.034;2023-06-19T16:36:36;100175.28;;;29.77;37.86
62152;BME280;48139;47.474;19.034;2023-06-19T16:39:38;100183.75;;;29.67;38.00
62152;BME280;48139;47.474;19.034;2023-06-19T16:42:41;100173.38;;;29.71;37.81
62152;BME280;48139;47.474;19.034;2023-06-19T16:45:43;100181.66;;;29.69;38.69
62152;BME280;48139;47.474;19.034;2023-06-19T16:48:46;100182.00;;;29.53;38.05
62152;BME280;48139;47.474;19.034;2023-06-19T16:51:48;100183.69;;;29.54;38.50
62152;BME280;48139;47.474;19.034;2023-06-19T16:54:51;100185.31;;;29.48;39.59
62152;BME280;48139;47.474;19.034;2023-06-19T16:57:54;100186.97;;;29.49;39.75
62152;BME280;48139;47.474;19.034;2023-06-19T17:00:57;100188.81;;;29.49;39.30
62152;BME280;48139;47.474;19.034;2023-06-19T17:03:59;100195.00;;;29.43;39.29
62152;BME280;48139;47.474;19.034;2023-06-19T17:07:02;100194.22;;;29.21;39.82
62152;BME280;48139;47.474;19.034;2023-06-19T17:10:05;100196.03;;;29.14;39.54
62152;BME280;48139;47.474;19.034;2023-06-19T17:13:08;100182.97;;;29.17;39.70
62152;BME280;48139;47.474;19.034;2023-06-19T17:16:10;100184.03;;;29.16;39.77
62152;BME280;48139;47.474;19.034;2023-06-19T17:19:13;100189.56;;;29.08;41.11
62152;BME280;48139;47.474;19.034;2023-06-19T17:22:15;100193.44;;;28.99;41.13
62152;BME280;48139;47.474;19.034;2023-06-19T17:25:18;100183.75;;;28.83;41.10
62152;BME280;48139;47.474;19.034;2023-06-19T17:28:20;100186.69;;;28.67;40.74
62152;BME280;48139;47.474;19.034;2023-06-19T17:31:22;100188.22;;;28.55;41.40
62152;BME280;48139;47.474;19.034;2023-06-19T17:34:25;100188.63;;;28.52;42.14
62152;BME280;48139;47.474;19.034;2023-06-19T17:37:28;100191.91;;;28.47;41.75
62152;BME280;48139;47.474;19.034;2023-06-19T17:40:30;100196.63;;;28.45;42.47
62152;BME280;48139;47.474;19.034;2023-06-19T17:43:33;100203.44;;;28.41;43.00
62152;BME280;48139;47.474;19.034;2023-06-19T17:46:35;100202.91;;;28.31;43.41
62152;BME280;48139;47.474;19.034;2023-06-19T17:49:41;100202.38;;;28.21;43.69
62152;BME280;48139;47.474;19.034;2023-06-19T17:52:43;100199.09;;;28.11;43.99
62152;BME280;48139;47.474;19.034;2023-06-19T17:55:46;100211.47;;;28.05;45.28
62152;BME280;48139;47.474;19.034;2023-06-19T17:58:49;100208.06;;;27.97;41.93
62152;BME280;48139;47.474;19.034;2023-06-19T18:01:51;100212.97;;;27.93;43.49
62152;BME280;48139;47.474;19.034;2023-06-19T18:04:54;100211.03;;;27.87;46.61
62152;BME280;48139;47.474;19.034;2023-06-19T18:07:56;100212.19;;;27.78;47.88
62152;BME280;48139;47.474;19.034;2023-06-19T18:10:59;100215.97;;;27.69;47.41
62152;BME280;48139;47.474;19.034;2023-06-19T18:14:01;100212.47;;;27.54;47.03
62152;BME280;48139;47.474;19.034;2023-06-19T18:17:04;100219.75;;;27.45;49.25
62152;BME280;48139;47.474;19.034;2023-06-19T18:20:06;100211.75;;;27.37;50.19
62152;BME280;48139;47.474;19.034;2023-06-19T18:23:09;100223.97;;;27.25;51.43
62152;BME280;48139;47.474;19.034;2023-06-19T18:26:12;100219.63;;;27.24;49.04
62152;BME280;48139;47.474;19.034;2023-06-19T18:29:14;100231.31;;;27.16;49.78
62152;BME280;48139;47.474;19.034;2023-06-19T18:32:17;100232.03;;;27.10;50.24
62152;BME280;48139;47.474;19.034;2023-06-19T18:35:20;100233.22;;;27.08;53.05
62152;BME280;48139;47.474;19.034;2023-06-19T18:38:22;100227.28;;;26.98;53.71
62152;BME280;48139;47.474;19.034;2023-06-19T18:41:25;100232.22;;;26.86;56.21
62152;BME280;48139;47.474;19.034;2023-06-19T18:44:29;100237.03;;;26.68;56.86
62152;BME280;48139;47.474;19.034;2023-06-19T18:47:32;100231.53;;;26.61;57.52
62152;BME280;48139;47.474;19.034;2023-06-19T18:50:34;100246.38;;;26.49;58.96
62152;BME280;48139;47.474;19.034;2023-06-19T18:53:38;100234.25;;;26.30;58.83
62152;BME280;48139;47.474;19.034;2023-06-19T18:56:41;100244.34;;;26.20;60.29
62152;BME280;48139;47.474;19.034;2023-06-19T18:59:44;100240.34;;;26.16;62.66
62152;BME280;48139;47.474;19.034;2023-06-19T19:02:46;100247.59;;;26.07;63.20
62152;BME280;48139;47.474;19.034;2023-06-19T19:05:49;100252.03;;;25.92;62.52
62152;BME280;48139;47.474;19.034;2023-06-19T19:08:52;100254.37;;;25.87;65.78
62152;BME280;48139;47.474;19.034;2023-06-19T19:11:58;100258.94;;;25.79;66.14
62152;BME280;48139;47.474;19.034;2023-06-19T19:15:01;100259.81;;;25.71;67.89
62152;BME280;48139;47.474;19.034;2023-06-19T19:18:04;100266.53;;;25.59;68.97
62152;BME280;48139;47.474;19.034;2023-06-19T19:21:06;100263.31;;;25.55;70.27
62152;BME280;48139;47.474;19.034;2023-06-19T19:24:09;100271.72;;;25.44;70.90
62152;BME280;48139;47.474;19.034;2023-06-19T19:27:11;100274.41;;;25.36;71.93
62152;BME280;48139;47.474;19.034;2023-06-19T19:30:14;100273.75;;;25.26;73.06
62152;BME280;48139;47.474;19.034;2023-06-19T19:33:17;100271.25;;;25.16;74.09
62152;BME280;48139;47.474;19.034;2023-06-19T19:36:19;100274.94;;;25.07;75.47